Time;durP1;ratioP1;P1;durP2;ratioP2;P2;SDS_P1;SDS_P2;PMS_P1;PMS_P2;Temp;Humidity;BMP_temperature;BMP_pressure;BME280_temperature;BME280_humidity;BME280_pressure;Samples;Min_cycle;Max_cycle;Signal;HPM_P1;HPM_P2
2022/01/29 00:02:03;;;;;;;6.82;1.70;;;11.20;77.60;;;;;;5009125;28;20030;-75
2022/01/29 00:04:29;;;;;;;7.32;2.22;;;11.10;77.50;;;;;;5008709;28;20493;-75
2022/01/29 00:06:55;;;;;;;4.55;1.98;;;11.10;77.50;;;;;;5007948;28;20030;-74
2022/01/29 00:09:21;;;;;;;7.72;1.85;;;11.20;77.70;;;;;;5009310;28;20022;-75
2022/01/29 00:11:47;;;;;;;6.97;1.77;;;11.10;77.60;;;;;;5008772;28;20040;-75
2022/01/29 00:14:13;;;;;;;7.55;1.92;;;11.10;77.60;;;;;;5009613;28;20030;-74
2022/01/29 00:16:40;;;;;;;7.13;1.58;;;11.10;77.60;;;;;;5009398;28;20030;-74
2022/01/29 00:19:07;;;;;;;8.93;2.05;;;11.10;77.70;;;;;;5011197;28;20030;-74
2022/01/29 00:21:33;;;;;;;3.95;1.17;;;11.10;77.70;;;;;;5011018;28;20059;-74
2022/01/29 00:24:00;;;;;;;9.10;2.42;;;11.10;77.70;;;;;;5008959;28;20049;-75
2022/01/29 00:26:27;;;;;;;7.20;2.15;;;11.10;77.70;;;;;;5010119;28;20018;-75
2022/01/29 00:28:56;;;;;;;6.55;1.58;;;11.10;77.80;;;;;;5009651;28;20037;-75
2022/01/29 00:31:22;;;;;;;9.18;2.38;;;11.10;77.80;;;;;;5008628;28;20037;-75
2022/01/29 00:33:48;;;;;;;5.43;1.67;;;11.10;77.80;;;;;;5010710;28;20038;-75
2022/01/29 00:36:14;;;;;;;5.40;2.00;;;11.10;77.80;;;;;;5018739;28;20042;-75
2022/01/29 00:38:40;;;;;;;5.35;3.13;;;11.10;77.80;;;;;;5023524;28;20060;-75
2022/01/29 00:41:06;;;;;;;5.22;1.65;;;11.20;78.00;;;;;;5023009;28;20576;-75
2022/01/29 00:43:34;;;;;;;5.85;2.15;;;11.20;78.00;;;;;;5028002;28;20037;-75
2022/01/29 00:46:00;;;;;;;11.60;1.92;;;11.20;78.00;;;;;;5027868;28;20518;-75
2022/01/29 00:48:26;;;;;;;7.22;2.13;;;11.20;78.00;;;;;;5027000;28;20038;-75
2022/01/29 00:50:52;;;;;;;9.52;2.08;;;11.10;77.80;;;;;;5028481;28;20037;-75
2022/01/29 00:53:18;;;;;;;9.15;2.45;;;11.20;78.00;;;;;;5027271;28;20152;-75
2022/01/29 00:55:45;;;;;;;8.38;2.40;;;11.10;77.80;;;;;;5028751;28;20040;-74
2022/01/29 00:58:11;;;;;;;10.65;2.95;;;11.20;78.00;;;;;;5028815;28;20056;-76
2022/01/29 01:00:37;;;;;;;9.20;2.17;;;11.10;77.80;;;;;;5048361;28;20014;-75
2022/01/29 01:03:03;;;;;;;13.88;3.42;;;11.10;77.90;;;;;;5051128;28;20036;-75
2022/01/29 01:05:29;;;;;;;6.75;2.20;;;11.10;77.90;;;;;;5051320;28;20041;-75
2022/01/29 01:07:55;;;;;;;9.82;2.30;;;11.10;77.90;;;;;;5051900;28;20025;-76
2022/01/29 01:10:21;;;;;;;8.98;1.98;;;11.10;77.90;;;;;;5051669;28;20013;-75
2022/01/29 01:12:47;;;;;;;9.68;2.60;;;11.20;78.10;;;;;;5052012;28;20045;-75
2022/01/29 01:15:13;;;;;;;8.88;1.90;;;11.20;78.20;;;;;;5051347;28;20028;-74
2022/01/29 01:17:39;;;;;;;8.25;1.90;;;11.10;78.00;;;;;;5051990;28;20041;-75
2022/01/29 01:20:05;;;;;;;10.60;1.77;;;11.20;78.20;;;;;;5049620;28;20033;-75
2022/01/29 01:22:32;;;;;;;8.82;2.13;;;11.10;78.00;;;;;;5048231;28;20042;-74
2022/01/29 01:24:58;;;;;;;6.75;1.60;;;11.10;78.00;;;;;;5028722;28;20025;-75
2022/01/29 01:27:24;;;;;;;7.15;1.88;;;11.10;78.00;;;;;;5027616;28;20477;-75
2022/01/29 01:29:50;;;;;;;7.55;1.90;;;11.10;78.00;;;;;;5028125;28;20515;-75
2022/01/29 01:32:16;;;;;;;4.28;1.60;;;11.10;78.00;;;;;;5028753;28;20028;-75
2022/01/29 01:34:48;;;;;;;5.03;1.73;;;11.10;78.00;;;;;;5028071;28;20048;-75
2022/01/29 01:37:34;;;;;;;5.68;1.70;;;11.10;78.00;;;;;;5026375;28;20032;-75
2022/01/29 01:40:01;;;;;;;7.07;1.88;;;11.10;78.00;;;;;;5022654;28;20480;-75
2022/01/29 01:42:27;;;;;;;6.68;1.73;;;11.10;78.00;;;;;;5007878;28;20485;-75
2022/01/29 01:44:53;;;;;;;8.65;1.90;;;11.10;78.00;;;;;;5007136;28;20140;-75
2022/01/29 01:47:20;;;;;;;6.68;1.30;;;11.20;78.20;;;;;;4989317;28;20058;-75
2022/01/29 01:49:46;;;;;;;8.38;1.52;;;11.10;78.00;;;;;;5007392;28;20064;-74
2022/01/29 01:52:13;;;;;;;9.65;2.70;;;11.10;78.00;;;;;;5007247;28;20062;-74
2022/01/29 01:54:41;;;;;;;6.57;2.03;;;11.10;78.10;;;;;;5007567;28;20205;-75
2022/01/29 01:57:07;;;;;;;7.85;1.33;;;11.20;78.30;;;;;;5007769;28;20029;-74
2022/01/29 01:59:33;;;;;;;6.90;1.70;;;11.10;78.10;;;;;;5006693;28;20040;-74
2022/01/29 02:01:59;;;;;;;4.45;1.65;;;11.10;78.10;;;;;;5005488;28;20033;-75
2022/01/29 02:04:26;;;;;;;7.40;1.75;;;11.10;78.10;;;;;;5006849;28;20030;-75
2022/01/29 02:06:53;;;;;;;5.70;1.30;;;11.10;78.20;;;;;;5006013;28;20121;-75
2022/01/29 02:09:22;;;;;;;4.15;1.35;;;11.10;78.70;;;;;;5007978;28;20052;-75
2022/01/29 02:11:53;;;;;;;4.32;1.60;;;11.10;78.20;;;;;;5005946;28;20033;-75
2022/01/29 02:14:21;;;;;;;7.32;1.38;;;11.10;78.20;;;;;;5007006;28;20843;-75
2022/01/29 02:16:47;;;;;;;4.82;2.13;;;11.10;78.20;;;;;;5006775;28;20034;-75
2022/01/29 02:19:13;;;;;;;3.88;1.10;;;11.10;78.20;;;;;;5007270;28;20076;-76
2022/01/29 02:21:39;;;;;;;6.60;2.08;;;11.10;78.20;;;;;;5024516;28;20033;-76
2022/01/29 02:24:05;;;;;;;5.75;1.55;;;11.10;78.30;;;;;;5029196;28;20033;-75
2022/01/29 02:26:31;;;;;;;4.90;1.55;;;11.10;78.20;;;;;;5030844;28;20140;-75
2022/01/29 02:28:57;;;;;;;8.50;1.98;;;11.10;78.20;;;;;;5029212;28;20516;-75
2022/01/29 02:31:23;;;;;;;3.15;1.38;;;11.10;78.30;;;;;;5015095;28;20034;-75
2022/01/29 02:33:50;;;;;;;3.13;0.88;;;11.10;78.20;;;;;;5010739;28;20038;-75
2022/01/29 02:36:16;;;;;;;6.50;1.73;;;11.10;78.20;;;;;;5010837;28;20033;-75
2022/01/29 02:38:42;;;;;;;5.70;1.30;;;11.20;78.40;;;;;;5010700;28;20041;-75
2022/01/29 02:41:08;;;;;;;2.85;1.35;;;11.10;78.20;;;;;;5010908;28;20029;-75
2022/01/29 02:43:47;;;;;;;5.53;2.20;;;11.10;78.20;;;;;;5009953;28;20562;-75
2022/01/29 02:48:57;;;;;;;2.45;1.02;;;11.10;78.30;;;;;;5027435;28;20037;-75
2022/01/29 02:51:23;;;;;;;3.75;1.40;;;11.20;78.50;;;;;;5014234;28;20022;-75
2022/01/29 02:53:50;;;;;;;5.63;1.10;;;11.10;78.30;;;;;;5031581;28;20076;-75
2022/01/29 02:56:16;;;;;;;3.45;0.93;;;11.10;78.30;;;;;;5033551;28;20389;-74
2022/01/29 02:58:43;;;;;;;6.22;1.20;;;11.10;78.30;;;;;;5033486;28;20590;-74
2022/01/29 03:01:09;;;;;;;3.58;1.00;;;11.10;78.40;;;;;;5033659;28;20036;-74
2022/01/29 03:03:35;;;;;;;4.38;1.00;;;11.10;78.40;;;;;;5032802;28;20477;-74
2022/01/29 03:06:04;;;;;;;3.13;0.98;;;11.10;78.40;;;;;;5017195;28;20037;-74
2022/01/29 03:08:30;;;;;;;4.65;0.90;;;11.10;78.40;;;;;;5033032;28;20511;-74
2022/01/29 03:10:56;;;;;;;3.60;1.17;;;11.10;78.40;;;;;;5048539;28;20384;-74
2022/01/29 03:13:21;;;;;;;4.03;0.93;;;11.10;78.50;;;;;;5033096;28;20127;-75
2022/01/29 03:15:47;;;;;;;3.58;1.30;;;11.10;78.50;;;;;;5031844;28;20444;-75
2022/01/29 03:18:13;;;;;;;4.07;0.93;;;11.10;78.50;;;;;;5032839;28;20037;-74
2022/01/29 03:20:39;;;;;;;4.38;1.05;;;11.10;79.00;;;;;;5031911;28;20337;-75
2022/01/29 03:23:05;;;;;;;3.03;0.77;;;11.10;78.50;;;;;;5048428;28;20040;-75
2022/01/29 03:25:33;;;;;;;2.25;0.80;;;11.10;78.50;;;;;;5035168;28;20052;-75
2022/01/29 03:27:59;;;;;;;2.25;0.90;;;11.10;78.50;;;;;;5035619;28;20041;-75
2022/01/29 03:30:25;;;;;;;4.50;0.80;;;11.10;78.50;;;;;;5034132;28;20025;-75
2022/01/29 03:32:51;;;;;;;4.47;0.95;;;11.10;78.50;;;;;;5034376;28;20415;-75
2022/01/29 03:35:17;;;;;;;2.05;0.80;;;11.10;78.50;;;;;;5033296;28;20025;-75
2022/01/29 03:37:43;;;;;;;4.55;0.70;;;11.10;78.50;;;;;;5034282;28;20061;-75
2022/01/29 03:40:10;;;;;;;2.45;1.10;;;11.10;78.50;;;;;;5033863;28;20048;-75
2022/01/29 03:42:47;;;;;;;3.45;0.80;;;11.10;78.50;;;;;;5014762;28;20112;-75
2022/01/29 03:45:14;;;;;;;2.65;0.75;;;11.10;79.10;;;;;;5013434;28;20429;-76
2022/01/29 03:47:40;;;;;;;5.13;1.15;;;11.10;78.50;;;;;;5011455;28;20140;-76
2022/01/29 03:50:06;;;;;;;3.25;1.10;;;11.10;79.10;;;;;;5013067;28;20037;-75
2022/01/29 03:52:32;;;;;;;5.95;1.13;;;11.10;78.60;;;;;;5012742;28;20473;-75
2022/01/29 03:54:58;;;;;;;5.00;1.08;;;11.10;78.60;;;;;;5011664;28;20058;-75
2022/01/29 03:57:24;;;;;;;3.70;0.60;;;11.10;78.60;;;;;;5012847;28;20057;-75
2022/01/29 03:59:50;;;;;;;4.10;0.68;;;11.10;78.70;;;;;;5012563;28;20560;-75
2022/01/29 04:02:16;;;;;;;2.58;0.45;;;11.10;78.70;;;;;;5011143;28;20280;-75
2022/01/29 04:04:42;;;;;;;2.55;0.50;;;11.10;78.70;;;;;;5012226;28;20041;-75
2022/01/29 04:07:11;;;;;;;2.75;0.50;;;11.10;78.70;;;;;;5012360;28;20107;-75
2022/01/29 04:09:39;;;;;;;2.90;0.60;;;11.10;78.70;;;;;;5011101;28;20030;-75
2022/01/29 04:12:05;;;;;;;2.42;0.60;;;11.10;78.70;;;;;;5011186;28;20030;-75
2022/01/29 04:14:37;;;;;;;3.75;0.90;;;11.10;78.70;;;;;;5010926;28;20049;-75
2022/01/29 04:17:04;;;;;;;2.95;0.90;;;11.10;78.70;;;;;;5010390;28;20030;-74
2022/01/29 04:19:31;;;;;;;6.50;0.82;;;11.10;78.70;;;;;;5012087;28;20032;-75
2022/01/29 04:21:57;;;;;;;3.25;0.98;;;11.10;78.70;;;;;;5010867;28;20034;-75
2022/01/29 04:24:23;;;;;;;4.13;0.80;;;11.10;78.70;;;;;;5011631;28;20030;-75
2022/01/29 04:26:49;;;;;;;4.97;0.68;;;11.10;78.70;;;;;;5010791;28;20029;-76
2022/01/29 04:29:15;;;;;;;2.28;0.65;;;11.10;78.70;;;;;;5011680;28;20115;-76
2022/01/29 04:31:57;;;;;;;2.28;0.73;;;11.10;78.70;;;;;;5010460;28;20026;-75
2022/01/29 04:34:24;;;;;;;1.63;0.60;;;11.10;78.70;;;;;;5010282;28;20030;-75
2022/01/29 04:36:50;;;;;;;1.92;1.05;;;11.10;78.70;;;;;;5010506;28;20030;-75
2022/01/29 04:39:16;;;;;;;3.10;0.70;;;11.10;78.70;;;;;;5011500;28;20532;-76
2022/01/29 04:41:42;;;;;;;2.55;0.77;;;11.10;78.80;;;;;;5011711;28;20057;-75
2022/01/29 04:44:08;;;;;;;2.42;0.90;;;11.10;78.80;;;;;;5009911;28;20030;-75
2022/01/29 04:46:34;;;;;;;3.33;0.80;;;11.10;79.30;;;;;;5011071;28;20080;-75
2022/01/29 04:49:00;;;;;;;3.63;1.00;;;11.10;78.80;;;;;;5011395;28;20026;-75
2022/01/29 04:51:26;;;;;;;9.55;2.70;;;11.00;78.70;;;;;;5011615;28;20366;-75
2022/01/29 04:53:52;;;;;;;3.47;1.80;;;11.10;78.80;;;;;;5011082;28;20037;-75
2022/01/29 04:56:18;;;;;;;2.33;0.65;;;11.10;78.90;;;;;;5012395;28;20034;-75
2022/01/29 04:58:44;;;;;;;4.70;0.98;;;11.10;78.90;;;;;;5009840;28;20030;-74
2022/01/29 05:01:10;;;;;;;2.78;0.80;;;11.10;78.90;;;;;;5011209;28;20384;-75
2022/01/29 05:03:36;;;;;;;5.20;0.88;;;11.00;78.70;;;;;;4993409;28;20157;-74
2022/01/29 05:06:09;;;;;;;3.55;1.00;;;11.10;78.90;;;;;;5009647;28;20053;-75
2022/01/29 05:08:36;;;;;;;2.75;1.10;;;11.10;78.90;;;;;;5011127;28;20038;-76
2022/01/29 05:11:03;;;;;;;4.32;0.90;;;11.10;78.90;;;;;;5011659;28;20549;-75
2022/01/29 05:13:30;;;;;;;7.13;1.58;;;11.10;78.90;;;;;;5010997;28;20258;-75
2022/01/29 05:26:51;;;;;;;6.10;0.93;;;11.10;78.80;;;;;;5009655;28;20604;-75
2022/01/29 05:29:18;;;;;;;5.85;0.82;;;11.10;78.80;;;;;;5009451;28;20087;-75
2022/01/29 05:31:44;;;;;;;2.88;1.00;;;11.00;78.60;;;;;;5009117;28;20022;-75
2022/01/29 05:34:11;;;;;;;7.03;1.15;;;11.10;78.80;;;;;;5028356;28;20029;-75
2022/01/29 05:36:37;;;;;;;6.00;2.22;;;11.10;78.90;;;;;;5029399;28;20022;-75
2022/01/29 05:39:04;;;;;;;5.50;1.63;;;11.10;78.90;;;;;;5029051;28;20041;-75
2022/01/29 05:41:30;;;;;;;6.95;1.60;;;11.00;78.70;;;;;;5029474;28;20373;-75
2022/01/29 05:43:56;;;;;;;7.38;1.48;;;11.00;78.70;;;;;;5028888;28;20044;-75
2022/01/29 05:46:22;;;;;;;3.95;1.20;;;11.00;78.70;;;;;;5030355;28;20069;-75
2022/01/29 05:48:48;;;;;;;3.33;1.27;;;11.10;78.90;;;;;;5025880;28;20029;-75
2022/01/29 05:51:14;;;;;;;4.05;1.52;;;11.00;78.80;;;;;;5027246;28;20515;-76
2022/01/29 05:53:40;;;;;;;5.28;1.10;;;11.10;78.90;;;;;;5026977;28;20029;-75
2022/01/29 05:56:07;;;;;;;2.47;1.00;;;11.00;78.80;;;;;;5027666;28;20033;-75
2022/01/29 05:58:33;;;;;;;3.10;0.68;;;11.00;78.80;;;;;;5027067;28;20386;-75
2022/01/29 06:00:59;;;;;;;2.83;0.70;;;11.00;78.80;;;;;;5028095;28;20124;-76
2022/01/29 06:03:25;;;;;;;4.82;1.00;;;11.00;78.80;;;;;;5025723;28;20069;-75
2022/01/29 06:05:51;;;;;;;4.97;0.90;;;11.00;78.80;;;;;;5007653;28;20080;-75
2022/01/29 06:08:19;;;;;;;5.68;2.13;;;11.00;78.80;;;;;;5007303;28;20029;-76
2022/01/29 06:10:48;;;;;;;4.68;1.45;;;11.00;78.80;;;;;;5024984;28;20036;-75
2022/01/29 06:13:15;;;;;;;4.00;0.75;;;11.10;79.00;;;;;;5026729;28;20032;-75
2022/01/29 06:15:44;;;;;;;2.30;1.00;;;11.10;79.00;;;;;;5025988;28;20403;-76
2022/01/29 06:18:13;;;;;;;4.95;0.98;;;11.00;78.80;;;;;;5022092;28;20168;-75
2022/01/29 06:20:41;;;;;;;4.70;0.90;;;11.10;78.90;;;;;;5007193;28;20037;-75
2022/01/29 06:23:07;;;;;;;6.85;1.25;;;11.10;78.90;;;;;;5006845;28;20052;-76
2022/01/29 06:25:33;;;;;;;5.65;1.08;;;11.10;78.90;;;;;;5005497;28;20157;-75
2022/01/29 06:27:59;;;;;;;5.47;1.90;;;11.10;78.90;;;;;;5006474;28;20049;-76
2022/01/29 06:30:25;;;;;;;4.07;1.20;;;11.00;78.80;;;;;;5006008;28;20401;-75
2022/01/29 06:32:51;;;;;;;6.07;1.50;;;11.10;78.90;;;;;;5002555;28;20034;-74
2022/01/29 06:35:17;;;;;;;4.50;1.25;;;11.00;78.70;;;;;;5008030;28;20048;-75
2022/01/29 06:37:43;;;;;;;3.85;0.90;;;11.00;78.80;;;;;;5019984;28;20104;-75
2022/01/29 06:40:10;;;;;;;4.90;1.23;;;11.00;78.80;;;;;;5029312;28;20034;-75
2022/01/29 06:42:36;;;;;;;3.50;0.85;;;11.10;79.00;;;;;;5028849;28;20037;-75
2022/01/29 06:45:04;;;;;;;6.20;1.27;;;11.00;78.80;;;;;;5027826;28;20044;-73
2022/01/29 06:47:30;;;;;;;3.13;0.85;;;11.00;78.80;;;;;;5026709;28;20072;-75
2022/01/29 06:49:56;;;;;;;5.63;1.00;;;11.00;78.80;;;;;;5015111;28;20073;-74
2022/01/29 06:52:22;;;;;;;3.10;0.93;;;11.00;78.80;;;;;;5007059;28;20385;-75
2022/01/29 06:54:48;;;;;;;8.52;1.92;;;11.00;78.80;;;;;;4995231;28;20079;-73
2022/01/29 06:57:15;;;;;;;6.85;1.20;;;11.00;78.80;;;;;;5024100;28;20055;-77
2022/01/29 06:59:41;;;;;;;5.57;1.10;;;11.00;78.90;;;;;;5025143;28;20116;-79
2022/01/29 07:02:07;;;;;;;4.93;1.55;;;11.10;79.30;;;;;;5005370;28;20117;-76
2022/01/29 07:04:33;;;;;;;7.20;1.30;;;11.20;79.50;;;;;;5007106;28;20038;-74
2022/01/29 07:06:59;;;;;;;4.25;1.42;;;11.30;79.50;;;;;;5015085;28;20372;-75
2022/01/29 07:09:26;;;;;;;4.50;1.27;;;11.40;79.50;;;;;;5010419;28;20037;-75
2022/01/29 07:11:56;;;;;;;3.97;1.10;;;11.40;79.40;;;;;;5026862;28;20021;-76
2022/01/29 07:14:23;;;;;;;5.22;1.08;;;11.40;79.20;;;;;;5025289;28;20030;-77
2022/01/29 07:16:49;;;;;;;4.40;1.08;;;11.40;79.20;;;;;;5022828;28;20227;-81
2022/01/29 07:19:15;;;;;;;7.53;1.60;;;11.40;79.20;;;;;;5024281;28;20495;-79
2022/01/29 07:21:41;;;;;;;4.60;1.23;;;11.40;79.20;;;;;;5002051;28;20109;-78
2022/01/29 07:24:07;;;;;;;4.43;1.20;;;11.40;79.20;;;;;;5023211;28;21191;-78
2022/01/29 07:26:33;;;;;;;3.55;1.30;;;11.40;79.20;;;;;;5018792;28;20487;-78
2022/01/29 07:28:59;;;;;;;6.45;1.08;;;11.40;79.20;;;;;;5017062;28;20171;-76
2022/01/29 07:31:25;;;;;;;5.68;1.15;;;11.40;79.20;;;;;;5024847;28;20053;-79
2022/01/29 07:33:52;;;;;;;3.95;1.40;;;11.30;79.10;;;;;;5009203;28;20401;-77
2022/01/29 07:36:18;;;;;;;10.18;1.83;;;11.30;79.10;;;;;;5007320;28;20040;-77
2022/01/29 07:38:44;;;;;;;4.18;1.15;;;11.30;79.20;;;;;;5008860;28;20022;-76
2022/01/29 07:41:10;;;;;;;17.38;3.20;;;11.30;79.20;;;;;;5009059;28;20044;-76
2022/01/29 07:43:36;;;;;;;3.95;1.33;;;11.30;79.20;;;;;;5013260;28;20144;-75
2022/01/29 07:46:02;;;;;;;4.82;1.05;;;11.30;79.20;;;;;;5027613;28;20061;-76
2022/01/29 07:48:28;;;;;;;6.07;1.45;;;11.30;79.20;;;;;;5011757;28;20257;-77
2022/01/29 07:50:54;;;;;;;4.22;1.02;;;11.30;79.20;;;;;;5007084;28;20022;-76
2022/01/29 07:53:20;;;;;;;5.72;1.17;;;11.30;79.20;;;;;;5008046;28;20038;-75
2022/01/29 07:55:46;;;;;;;4.57;1.17;;;11.30;79.20;;;;;;5007162;28;20037;-76
2022/01/29 07:58:12;;;;;;;3.30;1.00;;;11.30;79.20;;;;;;5007989;28;20453;-76
2022/01/29 08:00:38;;;;;;;3.80;1.20;;;11.30;79.20;;;;;;5008076;28;20026;-76
2022/01/29 08:03:04;;;;;;;6.70;1.88;;;11.30;79.10;;;;;;5009263;28;20379;-77
2022/01/29 08:05:30;;;;;;;8.55;1.40;;;11.40;79.30;;;;;;5008628;28;20031;-75
2022/01/29 08:07:56;;;;;;;2.58;1.00;;;11.40;79.20;;;;;;5007677;28;20030;-76
2022/01/29 08:10:23;;;;;;;4.65;1.38;;;11.40;79.20;;;;;;5008869;28;20068;-76
2022/01/29 08:12:49;;;;;;;4.32;1.20;;;11.40;79.20;;;;;;5007382;28;20029;-76
2022/01/29 08:15:15;;;;;;;8.27;1.40;;;11.40;79.20;;;;;;5007547;28;20032;-76
2022/01/29 08:17:42;;;;;;;5.38;1.38;;;11.40;79.10;;;;;;5008959;28;20563;-77
2022/01/29 08:20:08;;;;;;;5.18;2.72;;;11.50;79.30;;;;;;5007326;28;20073;-80
2022/01/29 08:22:34;;;;;;;3.58;1.17;;;11.50;79.30;;;;;;5008728;28;20551;-77
2022/01/29 08:25:02;;;;;;;6.28;1.35;;;11.60;79.80;;;;;;5008651;28;20108;-77
2022/01/29 08:27:28;;;;;;;9.95;3.70;;;11.70;80.20;;;;;;5016099;28;20026;-77
2022/01/29 08:29:54;;;;;;;4.32;1.80;;;11.90;80.60;;;;;;5004659;28;20041;-77
2022/01/29 08:32:20;;;;;;;6.60;1.30;;;12.10;80.70;;;;;;5008947;28;20385;-77
2022/01/29 08:34:47;;;;;;;6.05;1.58;;;12.20;80.50;;;;;;5008426;28;20025;-76
2022/01/29 08:37:13;;;;;;;2.92;1.00;;;12.30;80.40;;;;;;5008817;28;20026;-75
2022/01/29 08:39:39;;;;;;;5.22;1.73;;;12.40;80.30;;;;;;5014157;28;20420;-74
2022/01/29 08:42:05;;;;;;;3.53;1.15;;;12.40;80.20;;;;;;5023741;28;20042;-75
2022/01/29 08:44:31;;;;;;;5.90;3.38;;;12.40;80.10;;;;;;5019486;28;20030;-75
2022/01/29 08:46:57;;;;;;;4.65;1.10;;;12.40;80.10;;;;;;5027494;28;20044;-76
2022/01/29 08:49:25;;;;;;;5.10;1.73;;;12.40;80.10;;;;;;5027845;28;20036;-75
2022/01/29 08:51:52;;;;;;;9.55;2.53;;;12.40;80.20;;;;;;5028448;28;20033;-81
2022/01/29 08:54:18;;;;;;;5.93;1.88;;;12.40;80.80;;;;;;5028599;28;20025;-80
2022/01/29 08:56:44;;;;;;;10.95;1.90;;;12.60;81.20;;;;;;5029811;28;20108;-75
2022/01/29 08:59:11;;;;;;;8.77;2.80;;;12.80;81.60;;;;;;5028919;28;20562;-77
2022/01/29 09:01:37;;;;;;;7.63;2.05;;;13.00;81.60;;;;;;5045992;28;20052;-75
2022/01/29 09:04:03;;;;;;;6.93;1.98;;;13.30;81.80;;;;;;5047573;28;20045;-75
2022/01/29 09:06:29;;;;;;;4.20;2.38;;;13.40;81.60;;;;;;5046528;28;20036;-78
2022/01/29 09:08:55;;;;;;;6.57;1.95;;;13.50;81.40;;;;;;5040911;28;20021;-78
2022/01/29 09:11:21;;;;;;;5.47;1.77;;;13.60;81.40;;;;;;5032129;28;20042;-77
2022/01/29 09:13:47;;;;;;;4.93;1.90;;;13.70;81.30;;;;;;5031910;28;20037;-75
2022/01/29 09:16:13;;;;;;;10.35;2.10;;;13.70;81.10;;;;;;5032775;28;20029;-77
2022/01/29 09:18:39;;;;;;;7.07;1.52;;;13.70;81.00;;;;;;5032763;28;20052;-77
2022/01/29 09:21:05;;;;;;;6.13;2.50;;;13.60;80.80;;;;;;5033306;28;20042;-77
2022/01/29 09:23:32;;;;;;;6.68;2.17;;;13.70;80.90;;;;;;5019652;28;20046;-77
2022/01/29 09:26:01;;;;;;;5.13;2.00;;;13.60;80.80;;;;;;5009771;28;20059;-77
2022/01/29 09:28:27;;;;;;;6.35;2.13;;;13.60;80.90;;;;;;5010142;28;20551;-76
2022/01/29 09:30:53;;;;;;;6.18;1.27;;;13.70;81.40;;;;;;5010216;28;20053;-76
2022/01/29 09:33:19;;;;;;;5.45;1.88;;;13.80;81.60;;;;;;5007870;28;20030;-76
2022/01/29 09:35:45;;;;;;;6.05;1.20;;;13.90;81.60;;;;;;5008090;28;20563;-76
2022/01/29 09:38:12;;;;;;;6.90;1.48;;;14.10;81.60;;;;;;5008209;28;20088;-79
2022/01/29 09:40:42;;;;;;;13.38;2.70;;;14.30;81.60;;;;;;5008576;28;20457;-76
2022/01/29 09:43:10;;;;;;;11.70;1.88;;;14.40;81.40;;;;;;5008802;28;20042;-75
2022/01/29 09:45:37;;;;;;;5.30;2.25;;;14.50;81.30;;;;;;5007508;28;20026;-75
2022/01/29 09:48:04;;;;;;;11.70;2.38;;;14.60;81.20;;;;;;5007064;28;20050;-75
2022/01/29 09:50:33;;;;;;;9.25;2.60;;;14.70;81.10;;;;;;5027248;28;20048;-88
2022/01/29 09:53:00;;;;;;;6.95;2.45;;;14.80;81.10;;;;;;5030891;28;20261;-77
2022/01/29 09:55:27;;;;;;;8.10;2.40;;;14.80;81.00;;;;;;5018199;28;20504;-77
2022/01/29 09:57:54;;;;;;;6.97;2.35;;;14.90;81.00;;;;;;5043732;28;20071;-79
2022/01/29 10:00:20;;;;;;;7.65;2.60;;;14.90;81.00;;;;;;5039871;28;20029;-77
2022/01/29 10:03:25;;;;;;;8.93;1.73;;;14.80;80.80;;;;;;5034697;28;20235;-78
2022/01/29 10:05:53;;;;;;;8.30;1.88;;;14.70;80.80;;;;;;5033313;28;20048;-79
2022/01/29 10:08:20;;;;;;;7.20;1.63;;;14.70;81.00;;;;;;5038508;28;20484;-75
2022/01/29 10:10:48;;;;;;;7.70;2.13;;;14.60;81.00;;;;;;5039392;28;20111;-78
2022/01/29 10:13:34;;;;;;;7.97;2.28;;;14.50;81.00;;;;;;5040060;28;20033;-78
2022/01/29 10:16:11;;;;;;;6.15;2.05;;;14.40;81.00;;;;;;5038830;28;20093;-79
2022/01/29 10:18:47;;;;;;;5.63;1.40;;;14.40;81.20;;;;;;5034924;28;20030;-78
2022/01/29 10:21:24;;;;;;;3.85;1.40;;;14.30;81.10;;;;;;5019523;28;20049;-77
2022/01/29 10:24:02;;;;;;;5.43;1.35;;;14.30;81.20;;;;;;5035418;28;20049;-78
2022/01/29 10:26:41;;;;;;;5.70;2.35;;;14.20;81.10;;;;;;5032261;28;20034;-77
2022/01/29 10:29:23;;;;;;;5.22;1.85;;;14.20;81.20;;;;;;5029916;28;20462;-80
2022/01/29 10:32:00;;;;;;;5.80;1.90;;;14.20;81.30;;;;;;5038368;28;20029;-78
2022/01/29 10:34:27;;;;;;;7.78;2.58;;;14.10;81.20;;;;;;5028673;28;20041;-77
2022/01/29 10:37:12;;;;;;;7.10;2.25;;;14.10;81.20;;;;;;5020837;28;20030;-80
2022/01/29 10:39:38;;;;;;;4.18;1.58;;;14.10;81.20;;;;;;5031530;28;20468;-76
2022/01/29 10:42:27;;;;;;;4.43;1.42;;;14.00;81.10;;;;;;5039655;28;20198;-77
2022/01/29 10:44:55;;;;;;;5.20;1.10;;;14.00;81.10;;;;;;5041832;28;20115;-77
2022/01/29 10:47:24;;;;;;;7.13;1.77;;;14.10;81.20;;;;;;5042600;28;20330;-77
2022/01/29 10:49:57;;;;;;;11.55;1.73;;;14.00;81.10;;;;;;5033910;28;20034;-77
2022/01/29 10:52:29;;;;;;;5.97;2.13;;;14.00;81.10;;;;;;5044845;28;20037;-78
2022/01/29 10:55:01;;;;;;;5.55;1.58;;;14.00;81.00;;;;;;5042895;28;20294;-77
2022/01/29 10:57:47;;;;;;;5.30;1.67;;;14.00;81.00;;;;;;5044012;28;20504;-76
2022/01/29 11:00:31;;;;;;;8.93;1.90;;;14.00;81.00;;;;;;5026745;28;20036;-77
2022/01/29 11:03:00;;;;;;;9.40;1.88;;;14.00;81.00;;;;;;5038111;28;20042;-78
2022/01/29 11:05:30;;;;;;;5.95;1.60;;;14.00;81.00;;;;;;5042336;28;20089;-79
2022/01/29 11:08:01;;;;;;;7.95;1.50;;;14.00;81.00;;;;;;5043676;28;20033;-78
2022/01/29 11:10:30;;;;;;;5.32;1.60;;;14.00;81.00;;;;;;5024339;28;20030;-78
2022/01/29 11:12:57;;;;;;;6.68;2.10;;;14.00;81.00;;;;;;5023594;28;20317;-77
2022/01/29 11:15:25;;;;;;;8.45;1.88;;;14.00;81.00;;;;;;5025209;28;20140;-76
2022/01/29 11:17:55;;;;;;;6.95;1.65;;;14.00;81.00;;;;;;5023358;28;20042;-77
2022/01/29 11:20:21;;;;;;;7.38;1.85;;;14.00;81.00;;;;;;5023640;28;20034;-76
2022/01/29 11:22:49;;;;;;;9.65;2.35;;;14.00;81.00;;;;;;5023305;28;20038;-82
2022/01/29 11:25:27;;;;;;;9.60;1.75;;;14.00;81.00;;;;;;5024168;28;20061;-79
2022/01/29 11:28:15;;;;;;;6.22;1.80;;;14.10;81.10;;;;;;5037554;28;20025;-76
2022/01/29 11:30:43;;;;;;;6.57;1.80;;;14.10;81.00;;;;;;5042361;28;20056;-78
2022/01/29 11:33:09;;;;;;;6.13;1.92;;;14.10;80.90;;;;;;5032004;28;20040;-76
2022/01/29 11:35:54;;;;;;;6.63;1.75;;;14.20;81.00;;;;;;5030630;28;20072;-77
2022/01/29 11:38:32;;;;;;;7.60;1.60;;;14.20;81.00;;;;;;5024003;28;20072;-76
2022/01/29 11:41:01;;;;;;;7.45;1.77;;;14.20;80.90;;;;;;5023530;28;20216;-77
2022/01/29 11:43:37;;;;;;;7.43;2.50;;;14.30;80.90;;;;;;5023247;28;20034;-78
2022/01/29 11:46:25;;;;;;;10.38;2.63;;;14.30;80.90;;;;;;5021204;28;20101;-77
2022/01/29 11:48:56;;;;;;;7.82;2.17;;;14.30;80.90;;;;;;5027238;28;20460;-78
2022/01/29 11:51:38;;;;;;;5.90;2.10;;;14.40;81.00;;;;;;5041986;28;20035;-76
2022/01/29 11:54:04;;;;;;;5.90;1.50;;;14.40;80.90;;;;;;5043541;28;20388;-79
2022/01/29 11:56:35;;;;;;;8.80;3.20;;;14.40;80.80;;;;;;5043414;28;20421;-80
2022/01/29 11:59:26;;;;;;;7.63;2.40;;;14.40;80.70;;;;;;5038753;28;20052;-81
2022/01/29 12:01:57;;;;;;;7.85;2.45;;;14.40;80.70;;;;;;5005375;28;20616;-80
2022/01/29 12:04:48;;;;;;;7.38;1.70;;;14.40;80.60;;;;;;5021158;28;20424;-79
2022/01/29 12:07:32;;;;;;;9.88;3.35;;;14.40;80.60;;;;;;5008214;28;20049;-80
2022/01/29 12:10:05;;;;;;;9.30;2.78;;;14.40;80.60;;;;;;5021516;28;20033;-75
2022/01/29 12:12:36;;;;;;;5.82;2.55;;;14.40;80.50;;;;;;5020330;28;20034;-80
2022/01/29 12:15:11;;;;;;;12.20;3.60;;;14.40;80.40;;;;;;5021481;28;20034;-80
2022/01/29 12:17:47;;;;;;;8.55;2.10;;;14.50;80.40;;;;;;5019709;28;20532;-80
2022/01/29 12:20:19;;;;;;;9.02;2.28;;;14.50;80.30;;;;;;5035586;28;20044;-80
2022/01/29 12:22:46;;;;;;;9.45;2.55;;;14.50;80.30;;;;;;5041900;28;20037;-80
2022/01/29 12:25:17;;;;;;;10.35;2.83;;;14.50;80.20;;;;;;5040759;28;20572;-81
2022/01/29 12:27:53;;;;;;;10.32;2.75;;;14.60;80.20;;;;;;5040792;28;20485;-79
2022/01/29 12:30:24;;;;;;;8.00;3.10;;;14.70;80.10;;;;;;5023815;28;20061;-79
2022/01/29 12:33:07;;;;;;;14.85;3.85;;;14.70;80.00;;;;;;5019860;28;20425;-79
2022/01/29 12:35:43;;;;;;;13.02;3.50;;;14.80;79.90;;;;;;5022650;28;20026;-79
2022/01/29 12:38:26;;;;;;;12.48;3.05;;;14.80;79.80;;;;;;5022222;28;20041;-79
2022/01/29 12:40:56;;;;;;;11.48;3.63;;;14.80;79.60;;;;;;5022011;28;20102;-81
2022/01/29 12:43:42;;;;;;;12.38;2.72;;;14.80;79.60;;;;;;5022943;28;20141;-78
2022/01/29 12:46:23;;;;;;;8.82;3.63;;;14.80;79.50;;;;;;5038041;28;20048;-80
2022/01/29 12:49:07;;;;;;;14.43;3.65;;;14.80;79.50;;;;;;5036293;28;20087;-78
2022/01/29 12:51:45;;;;;;;14.13;3.67;;;14.80;79.30;;;;;;5021069;28;20041;-80
2022/01/29 12:54:12;;;;;;;16.90;3.80;;;14.80;79.30;;;;;;5022063;28;20030;-80
2022/01/29 12:56:38;;;;;;;10.85;3.83;;;14.80;79.20;;;;;;5023017;28;20021;-80
2022/01/29 12:59:13;;;;;;;11.50;2.78;;;14.80;79.20;;;;;;5027334;28;20040;-79
2022/01/29 13:01:42;;;;;;;17.20;3.58;;;14.80;79.10;;;;;;5037854;28;20029;-78
2022/01/29 13:04:16;;;;;;;12.57;2.47;;;14.80;79.10;;;;;;5026280;28;20428;-78
2022/01/29 13:06:47;;;;;;;12.18;3.22;;;14.90;79.10;;;;;;5010836;28;20026;-78